sensor_id;sensor_type;location;lat;lon;timestamp;pressure;altitude;pressure_sealevel;temperature;humidity
10720;BME280;5411;58.386;15.560;2023-11-19T00:00:57;100851.97;;;-0.46;100.00
10720;BME280;5411;58.386;15.560;2023-11-19T00:03:32;100842.75;;;-0.51;100.00
10720;BME280;5411;58.386;15.560;2023-11-19T00:06:06;100838.81;;;-0.57;100.00
10720;BME280;5411;58.386;15.560;2023-11-19T00:08:34;100837.50;;;-0.62;100.00
10720;BME280;5411;58.386;15.560;2023-11-19T00:11:07;100830.13;;;-0.68;100.00
10720;BME280;5411;58.386;15.560;2023-11-19T00:13:35;100840.84;;;-0.72;100.00
10720;BME280;5411;58.386;15.560;2023-11-19T00:16:07;100837.50;;;-0.74;100.00
10720;BME280;5411;58.386;15.560;2023-11-19T00:18:36;100834.16;;;-0.76;100.00
10720;BME280;5411;58.386;15.560;2023-11-19T00:21:06;100824.81;;;-0.80;100.00
10720;BME280;5411;58.386;15.560;2023-11-19T00:23:36;100823.03;;;-0.79;100.00
10720;BME280;5411;58.386;15.560;2023-11-19T00:26:05;100824.81;;;-0.80;100.00
10720;BME280;5411;58.386;15.560;2023-11-19T00:28:33;100823.03;;;-0.79;100.00
10720;BME280;5411;58.386;15.560;2023-11-19T00:31:05;100812.31;;;-0.76;100.00
10720;BME280;5411;58.386;15.560;2023-11-19T00:33:34;100821.75;;;-0.74;100.00
10720;BME280;5411;58.386;15.560;2023-11-19T00:36:01;100815.88;;;-0.66;100.00
10720;BME280;5411;58.386;15.560;2023-11-19T00:38:32;100805.84;;;-0.61;100.00
10720;BME280;5411;58.386;15.560;2023-11-19T00:41:00;100808.13;;;-0.56;100.00
10720;BME280;5411;58.386;15.560;2023-11-19T00:43:31;100802.78;;;-0.55;100.00
10720;BME280;5411;58.386;15.560;2023-11-19T00:46:00;100801.66;;;-0.52;100.00
10720;BME280;5411;58.386;15.560;2023-11-19T00:48:29;100786.84;;;-0.53;100.00
10720;BME280;5411;58.386;15.560;2023-11-19T00:50:58;100785.22;;;-0.54;100.00
10720;BME280;5411;58.386;15.560;2023-11-19T00:53:26;100784.50;;;-0.56;100.00
10720;BME280;5411;58.386;15.560;2023-11-19T00:55:56;100777.91;;;-0.62;100.00
10720;BME280;5411;58.386;15.560;2023-11-19T00:58:25;100780.09;;;-0.67;100.00
10720;BME280;5411;58.386;15.560;2023-11-19T01:00:54;100773.63;;;-0.74;100.00
10720;BME280;5411;58.386;15.560;2023-11-19T01:03:26;100780.19;;;-0.80;100.00
10720;BME280;5411;58.386;15.560;2023-11-19T01:05:55;100772.78;;;-0.86;100.00
10720;BME280;5411;58.386;15.560;2023-11-19T01:08:23;100773.25;;;-0.92;100.00
10720;BME280;5411;58.386;15.560;2023-11-19T01:10:52;100763.25;;;-0.98;100.00
10720;BME280;5411;58.386;15.560;2023-11-19T01:13:21;100760.97;;;-1.02;100.00
10720;BME280;5411;58.386;15.560;2023-11-19T01:15:50;100752.03;;;-1.11;100.00
10720;BME280;5411;58.386;15.560;2023-11-19T01:18:18;100743.78;;;-1.18;100.00
10720;BME280;5411;58.386;15.560;2023-11-19T01:20:47;100731.03;;;-1.22;100.00
10720;BME280;5411;58.386;15.560;2023-11-19T01:23:15;100731.50;;;-1.28;100.00
10720;BME280;5411;58.386;15.560;2023-11-19T01:25:43;100716.22;;;-1.34;100.00
10720;BME280;5411;58.386;15.560;2023-11-19T01:28:17;100723.59;;;-1.39;100.00
10720;BME280;5411;58.386;15.560;2023-11-19T01:30:53;100723.94;;;-1.44;100.00
10720;BME280;5411;58.386;15.560;2023-11-19T01:33:22;100711.31;;;-1.50;100.00
10720;BME280;5411;58.386;15.560;2023-11-19T01:35:50;100702.00;;;-1.54;100.00
10720;BME280;5411;58.386;15.560;2023-11-19T01:38:19;100700.66;;;-1.60;100.00
10720;BME280;5411;58.386;15.560;2023-11-19T01:40:47;100696.75;;;-1.65;100.00
10720;BME280;5411;58.386;15.560;2023-11-19T01:43:34;100685.75;;;-1.70;100.00
10720;BME280;5411;58.386;15.560;2023-11-19T01:46:07;100689.44;;;-1.73;100.00
10720;BME280;5411;58.386;15.560;2023-11-19T01:48:41;100682.78;;;-1.77;100.00
10720;BME280;5411;58.386;15.560;2023-11-19T01:51:11;100675.00;;;-1.78;100.00
10720;BME280;5411;58.386;15.560;2023-11-19T01:53:46;100674.28;;;-1.81;100.00
10720;BME280;5411;58.386;15.560;2023-11-19T01:56:15;100676.81;;;-1.79;100.00
10720;BME280;5411;58.386;15.560;2023-11-19T01:58:44;100668.94;;;-1.79;100.00
10720;BME280;5411;58.386;15.560;2023-11-19T02:01:15;100668.09;;;-1.80;100.00
10720;BME280;5411;58.386;15.560;2023-11-19T02:03:45;100676.81;;;-1.79;100.00
10720;BME280;5411;58.386;15.560;2023-11-19T02:06:17;100668.94;;;-1.79;100.00
10720;BME280;5411;58.386;15.560;2023-11-19T02:08:47;100657.00;;;-1.83;100.00
10720;BME280;5411;58.386;15.560;2023-11-19T02:11:16;100656.16;;;-1.84;100.00
10720;BME280;5411;58.386;15.560;2023-11-19T02:13:44;100650.19;;;-1.86;100.00
10720;BME280;5411;58.386;15.560;2023-11-19T02:16:13;100636.25;;;-1.86;100.00
10720;BME280;5411;58.386;15.560;2023-11-19T02:18:43;100638.06;;;-1.87;100.00
10720;BME280;5411;58.386;15.560;2023-11-19T02:21:11;100635.44;;;-1.87;100.00
10720;BME280;5411;58.386;15.560;2023-11-19T02:23:41;100628.38;;;-1.86;100.00
10720;BME280;5411;58.386;15.560;2023-11-19T02:26:16;100630.22;;;-1.87;100.00
10720;BME280;5411;58.386;15.560;2023-11-19T02:28:48;100625.75;;;-1.86;100.00
10720;BME280;5411;58.386;15.560;2023-11-19T02:31:16;100621.50;;;-1.87;100.00
10720;BME280;5411;58.386;15.560;2023-11-19T02:33:46;100619.72;;;-1.87;100.00
10720;BME280;5411;58.386;15.560;2023-11-19T02:36:19;100615.44;;;-1.88;100.00
10720;BME280;5411;58.386;15.560;2023-11-19T02:38:48;100619.56;;;-1.85;100.00
10720;BME280;5411;58.386;15.560;2023-11-19T02:41:17;100622.19;;;-1.85;100.00
10720;BME280;5411;58.386;15.560;2023-11-19T02:43:49;100618.63;;;-1.84;100.00
10720;BME280;5411;58.386;15.560;2023-11-19T02:46:21;100614.22;;;-1.84;100.00
10720;BME280;5411;58.386;15.560;2023-11-19T02:48:49;100613.50;;;-1.86;100.00
10720;BME280;5411;58.386;15.560;2023-11-19T02:51:19;100605.78;;;-1.87;100.00
10720;BME280;5411;58.386;15.560;2023-11-19T02:53:50;100600.75;;;-1.90;100.00
10720;BME280;5411;58.386;15.560;2023-11-19T02:56:18;100600.88;;;-1.92;100.00
10720;BME280;5411;58.386;15.560;2023-11-19T02:58:56;100594.06;;;-1.94;100.00
10720;BME280;5411;58.386;15.560;2023-11-19T03:01:26;100593.34;;;-1.96;100.00
10720;BME280;5411;58.386;15.560;2023-11-19T03:03:58;100580.47;;;-1.99;100.00
10720;BME280;5411;58.386;15.560;2023-11-19T03:06:31;100580.72;;;-2.02;100.00
10720;BME280;5411;58.386;15.560;2023-11-19T03:08:59;100570.34;;;-2.04;100.00
10720;BME280;5411;58.386;15.560;2023-11-19T03:11:37;100572.25;;;-2.06;100.00
10720;BME280;5411;58.386;15.560;2023-11-19T03:14:10;100565.22;;;-2.05;100.00
10720;BME280;5411;58.386;15.560;2023-11-19T03:16:39;100558.44;;;-2.08;100.00
10720;BME280;5411;58.386;15.560;2023-11-19T03:19:07;100559.50;;;-2.10;100.00
10720;BME280;5411;58.386;15.560;2023-11-19T03:21:36;100564.00;;;-2.12;100.00
10720;BME280;5411;58.386;15.560;2023-11-19T03:24:04;100569.25;;;-2.12;100.00
10720;BME280;5411;58.386;15.560;2023-11-19T03:26:33;100558.09;;;-2.14;100.00
10720;BME280;5411;58.386;15.560;2023-11-19T03:29:05;100549.72;;;-2.20;100.00
10720;BME280;5411;58.386;15.560;2023-11-19T03:31:35;100544.59;;;-2.21;100.00
10720;BME280;5411;58.386;15.560;2023-11-19T03:34:03;100542.09;;;-2.23;100.00
10720;BME280;5411;58.386;15.560;2023-11-19T03:36:32;100534.44;;;-2.26;100.00
10720;BME280;5411;58.386;15.560;2023-11-19T03:39:00;100537.91;;;-2.25;100.00
10720;BME280;5411;58.386;15.560;2023-11-19T03:41:32;100525.06;;;-2.28;100.00
10720;BME280;5411;58.386;15.560;2023-11-19T03:44:04;100523.28;;;-2.28;100.00
10720;BME280;5411;58.386;15.560;2023-11-19T03:46:34;100524.22;;;-2.29;100.00
10720;BME280;5411;58.386;15.560;2023-11-19T03:49:03;100513.75;;;-2.29;100.00
10720;BME280;5411;58.386;15.560;2023-11-19T03:51:34;100503.28;;;-2.29;100.00
10720;BME280;5411;58.386;15.560;2023-11-19T03:54:07;100504.00;;;-2.27;100.00
10720;BME280;5411;58.386;15.560;2023-11-19T03:56:36;100503.84;;;-2.25;100.00
10720;BME280;5411;58.386;15.560;2023-11-19T03:59:04;100495.88;;;-2.24;100.00
10720;BME280;5411;58.386;15.560;2023-11-19T04:01:32;100493.16;;;-2.22;100.00
10720;BME280;5411;58.386;15.560;2023-11-19T04:04:02;100475.53;;;-2.20;100.00
10720;BME280;5411;58.386;15.560;2023-11-19T04:06:31;100478.16;;;-2.20;100.00
10720;BME280;5411;58.386;15.560;2023-11-19T04:08:59;100475.41;;;-2.19;100.00
10720;BME280;5411;58.386;15.560;2023-11-19T04:11:28;100470.06;;;-2.17;100.00
10720;BME280;5411;58.386;15.560;2023-11-19T04:13:58;100464.81;;;-2.17;100.00
10720;BME280;5411;58.386;15.560;2023-11-19T04:16:27;100461.25;;;-2.16;100.00
10720;BME280;5411;58.386;15.560;2023-11-19T04:18:59;100470.41;;;-2.10;100.00
10720;BME280;5411;58.386;15.560;2023-11-19T04:21:31;100464.94;;;-2.07;100.00
10720;BME280;5411;58.386;15.560;2023-11-19T04:23:59;100461.13;;;-2.03;100.00
10720;BME280;5411;58.386;15.560;2023-11-19T04:26:28;100457.28;;;-1.99;100.00
10720;BME280;5411;58.386;15.560;2023-11-19T04:29:02;100450.13;;;-1.97;100.00
10720;BME280;5411;58.386;15.560;2023-11-19T04:31:31;100443.22;;;-1.98;100.00
10720;BME280;5411;58.386;15.560;2023-11-19T04:33:59;100445.84;;;-1.98;100.00
10720;BME280;5411;58.386;15.560;2023-11-19T04:36:29;100444.19;;;-1.99;100.00
10720;BME280;5411;58.386;15.560;2023-11-19T04:38:57;100435.50;;;-2.00;100.00
10720;BME280;5411;58.386;15.560;2023-11-19T04:41:26;100434.53;;;-1.99;100.00
10720;BME280;5411;58.386;15.560;2023-11-19T04:43:55;100426.56;;;-1.97;100.00
10720;BME280;5411;58.386;15.560;2023-11-19T04:46:24;100430.00;;;-1.97;100.00
10720;BME280;5411;58.386;15.560;2023-11-19T04:48:52;100421.31;;;-1.97;100.00
10720;BME280;5411;58.386;15.560;2023-11-19T04:51:22;100421.31;;;-1.97;100.00
10720;BME280;5411;58.386;15.560;2023-11-19T04:53:55;100421.91;;;-1.94;100.00
10720;BME280;5411;58.386;15.560;2023-11-19T04:56:23;100418.94;;;-1.89;100.00
10720;BME280;5411;58.386;15.560;2023-11-19T04:58:52;100415.34;;;-1.88;100.00
10720;BME280;5411;58.386;15.560;2023-11-19T05:01:21;100413.19;;;-1.83;100.00
10720;BME280;5411;58.386;15.560;2023-11-19T05:03:51;100407.81;;;-1.82;100.00
10720;BME280;5411;58.386;15.560;2023-11-19T05:06:19;100401.50;;;-1.79;100.00
10720;BME280;5411;58.386;15.560;2023-11-19T05:08:47;100403.28;;;-1.80;100.00
10720;BME280;5411;58.386;15.560;2023-11-19T05:11:19;100392.81;;;-1.80;100.00
10720;BME280;5411;58.386;15.560;2023-11-19T05:13:47;100392.69;;;-1.78;100.00
10720;BME280;5411;58.386;15.560;2023-11-19T05:16:15;100392.44;;;-1.75;100.00
10720;BME280;5411;58.386;15.560;2023-11-19T05:18:44;100384.47;;;-1.73;100.00
10720;BME280;5411;58.386;15.560;2023-11-19T05:21:13;100378.81;;;-1.69;100.00
10720;BME280;5411;58.386;15.560;2023-11-19T05:23:41;100383.00;;;-1.66;100.00
10720;BME280;5411;58.386;15.560;2023-11-19T05:26:16;100382.50;;;-1.60;100.00
10720;BME280;5411;58.386;15.560;2023-11-19T05:28:50;100376.88;;;-1.56;100.00
10720;BME280;5411;58.386;15.560;2023-11-19T05:31:18;100377.34;;;-1.51;100.00
10720;BME280;5411;58.386;15.560;2023-11-19T05:33:46;100376.38;;;-1.50;100.00
10720;BME280;5411;58.386;15.560;2023-11-19T05:36:15;100378.63;;;-1.45;100.00
10720;BME280;5411;58.386;15.560;2023-11-19T05:38:43;100371.44;;;-1.43;100.00
10720;BME280;5411;58.386;15.560;2023-11-19T05:41:12;100379.91;;;-1.39;100.00
10720;BME280;5411;58.386;15.560;2023-11-19T05:43:41;100365.72;;;-1.37;100.00
10720;BME280;5411;58.386;15.560;2023-11-19T05:46:11;100353.69;;;-1.39;100.00
10720;BME280;5411;58.386;15.560;2023-11-19T05:48:48;100359.06;;;-1.41;100.00
10720;BME280;5411;58.386;15.560;2023-11-19T05:51:16;100357.50;;;-1.44;100.00
10720;BME280;5411;58.386;15.560;2023-11-19T05:53:44;100359.28;;;-1.44;100.00
10720;BME280;5411;58.386;15.560;2023-11-19T05:56:13;100355.28;;;-1.48;100.00
10720;BME280;5411;58.386;15.560;2023-11-19T05:58:48;100350.03;;;-1.48;100.00
10720;BME280;5411;58.386;15.560;2023-11-19T06:01:18;100359.41;;;-1.46;100.00
10720;BME280;5411;58.386;15.560;2023-11-19T06:03:47;100355.59;;;-1.41;100.00
10720;BME280;5411;58.386;15.560;2023-11-19T06:06:17;100351.06;;;-1.39;100.00
10720;BME280;5411;58.386;15.560;2023-11-19T06:08:45;100351.78;;;-1.37;100.00
10720;BME280;5411;58.386;15.560;2023-11-19T06:11:14;100351.38;;;-1.33;100.00
10720;BME280;5411;58.386;15.560;2023-11-19T06:13:45;100346.94;;;-1.32;100.00
10720;BME280;5411;58.386;15.560;2023-11-19T06:16:14;100333.59;;;-1.29;100.00
10720;BME280;5411;58.386;15.560;2023-11-19T06:18:47;100336.78;;;-1.26;100.00
10720;BME280;5411;58.386;15.560;2023-11-19T06:21:15;100327.00;;;-1.24;100.00
10720;BME280;5411;58.386;15.560;2023-11-19T06:23:44;100327.00;;;-1.24;100.00
10720;BME280;5411;58.386;15.560;2023-11-19T06:26:12;100325.22;;;-1.23;100.00
10720;BME280;5411;58.386;15.560;2023-11-19T06:28:42;100319.84;;;-1.22;100.00
10720;BME280;5411;58.386;15.560;2023-11-19T06:31:11;100306.72;;;-1.22;100.00
10720;BME280;5411;58.386;15.560;2023-11-19T06:33:46;100315.28;;;-1.20;100.00
10720;BME280;5411;58.386;15.560;2023-11-19T06:36:14;100302.84;;;-1.18;100.00
10720;BME280;5411;58.386;15.560;2023-11-19T06:38:43;100301.06;;;-1.17;100.00
10720;BME280;5411;58.386;15.560;2023-11-19T06:41:12;100299.16;;;-1.15;100.00
10720;BME280;5411;58.386;15.560;2023-11-19T06:43:40;100296.28;;;-1.12;100.00
10720;BME280;5411;58.386;15.560;2023-11-19T06:46:15;100297.94;;;-1.11;100.00
10720;BME280;5411;58.386;15.560;2023-11-19T06:48:46;100290.91;;;-1.11;100.00
10720;BME280;5411;58.386;15.560;2023-11-19T06:51:15;100283.84;;;-1.10;100.00
10720;BME280;5411;58.386;15.560;2023-11-19T06:53:43;100289.22;;;-1.12;100.00
10720;BME280;5411;58.386;15.560;2023-11-19T06:56:19;100274.44;;;-1.13;100.00
10720;BME280;5411;58.386;15.560;2023-11-19T06:58:48;100280.53;;;-1.12;100.00
10720;BME280;5411;58.386;15.560;2023-11-19T07:01:17;100279.56;;;-1.11;100.00
10720;BME280;5411;58.386;15.560;2023-11-19T07:03:48;100281.22;;;-1.10;100.00
10720;BME280;5411;58.386;15.560;2023-11-19T07:06:17;100277.53;;;-1.08;100.00
10720;BME280;5411;58.386;15.560;2023-11-19T07:08:45;100273.78;;;-1.05;100.00
10720;BME280;5411;58.386;15.560;2023-11-19T07:11:14;100281.41;;;-1.02;100.00
10720;BME280;5411;58.386;15.560;2023-11-19T07:13:43;100277.69;;;-0.99;100.00
10720;BME280;5411;58.386;15.560;2023-11-19T07:16:14;100281.72;;;-0.95;100.00
10720;BME280;5411;58.386;15.560;2023-11-19T07:18:42;100279.66;;;-0.92;100.00
10720;BME280;5411;58.386;15.560;2023-11-19T07:21:18;100275.81;;;-0.88;100.00
10720;BME280;5411;58.386;15.560;2023-11-19T07:23:46;100273.19;;;-0.88;100.00
10720;BME280;5411;58.386;15.560;2023-11-19T07:26:15;100269.22;;;-0.82;100.00
10720;BME280;5411;58.386;15.560;2023-11-19T07:28:43;100272.25;;;-0.77;100.00
10720;BME280;5411;58.386;15.560;2023-11-19T07:31:15;100265.78;;;-0.73;100.00
10720;BME280;5411;58.386;15.560;2023-11-19T07:33:45;100261.09;;;-0.69;100.00
10720;BME280;5411;58.386;15.560;2023-11-19T07:36:17;100260.53;;;-0.63;100.00
10720;BME280;5411;58.386;15.560;2023-11-19T07:38:47;100258.50;;;-0.60;100.00
10720;BME280;5411;58.386;15.560;2023-11-19T07:41:28;100261.69;;;-0.56;100.00
10720;BME280;5411;58.386;15.560;2023-11-19T07:43:57;100256.13;;;-0.53;100.00
10720;BME280;5411;58.386;15.560;2023-11-19T07:46:26;100252.28;;;-0.49;100.00
10720;BME280;5411;58.386;15.560;2023-11-19T07:48:54;100255.34;;;-0.44;100.00
10720;BME280;5411;58.386;15.560;2023-11-19T07:51:23;100255.09;;;-0.41;100.00
10720;BME280;5411;58.386;15.560;2023-11-19T07:53:53;100247.03;;;-0.40;100.00
10720;BME280;5411;58.386;15.560;2023-11-19T07:56:21;100240.81;;;-0.39;100.00
10720;BME280;5411;58.386;15.560;2023-11-19T07:58:49;100239.03;;;-0.38;100.00
10720;BME280;5411;58.386;15.560;2023-11-19T08:01:18;100240.81;;;-0.39;100.00
10720;BME280;5411;58.386;15.560;2023-11-19T08:03:51;100239.03;;;-0.38;100.00
10720;BME280;5411;58.386;15.560;2023-11-19T08:06:25;100241.25;;;-0.33;100.00
10720;BME280;5411;58.386;15.560;2023-11-19T08:08:56;100245.16;;;-0.28;100.00
10720;BME280;5411;58.386;15.560;2023-11-19T08:11:27;100244.84;;;-0.25;100.00
10720;BME280;5411;58.386;15.560;2023-11-19T08:13:55;100247.50;;;-0.25;100.00
10720;BME280;5411;58.386;15.560;2023-11-19T08:16:25;100226.88;;;-0.20;100.00
10720;BME280;5411;58.386;15.560;2023-11-19T08:18:54;100226.63;;;-0.17;100.00
10720;BME280;5411;58.386;15.560;2023-11-19T08:21:25;100223.56;;;-0.12;100.00
10720;BME280;5411;58.386;15.560;2023-11-19T08:23:55;100225.34;;;-0.13;100.00
10720;BME280;5411;58.386;15.560;2023-11-19T08:26:23;100211.13;;;-0.10;100.00
10720;BME280;5411;58.386;15.560;2023-11-19T08:28:52;100210.84;;;-0.07;100.00
10720;BME280;5411;58.386;15.560;2023-11-19T08:31:20;100207.38;;;-0.08;100.00
10720;BME280;5411;58.386;15.560;2023-11-19T08:33:50;100208.91;;;-0.05;100.00
10720;BME280;5411;58.386;15.560;2023-11-19T08:36:19;100212.09;;;-0.02;100.00
10720;BME280;5411;58.386;15.560;2023-11-19T08:38:47;100210.69;;;0.04;100.00
10720;BME280;5411;58.386;15.560;2023-11-19T08:41:17;100207.66;;;0.09;100.00
10720;BME280;5411;58.386;15.560;2023-11-19T08:43:46;100204.47;;;0.15;100.00
10720;BME280;5411;58.386;15.560;2023-11-19T08:46:15;100204.75;;;0.21;100.00
10720;BME280;5411;58.386;15.560;2023-11-19T08:48:43;100197.09;;;0.28;100.00
10720;BME280;5411;58.386;15.560;2023-11-19T08:51:12;100197.81;;;0.30;100.00
10720;BME280;5411;58.386;15.560;2023-11-19T08:53:41;100200.28;;;0.31;100.00
10720;BME280;5411;58.386;15.560;2023-11-19T08:56:09;100192.94;;;0.35;100.00
10720;BME280;5411;58.386;15.560;2023-11-19T08:58:45;100192.22;;;0.43;100.00
10720;BME280;5411;58.386;15.560;2023-11-19T09:01:13;100187.53;;;0.46;100.00
10720;BME280;5411;58.386;15.560;2023-11-19T09:03:42;100182.69;;;0.51;100.00
10720;BME280;5411;58.386;15.560;2023-11-19T09:06:10;100181.13;;;0.58;100.00
10720;BME280;5411;58.386;15.560;2023-11-19T09:08:39;100175.56;;;0.61;100.00
10720;BME280;5411;58.386;15.560;2023-11-19T09:11:08;100163.47;;;0.68;100.00
10720;BME280;5411;58.386;15.560;2023-11-19T09:13:37;100170.41;;;0.69;100.00
10720;BME280;5411;58.386;15.560;2023-11-19T09:16:08;100167.63;;;0.71;100.00
10720;BME280;5411;58.386;15.560;2023-11-19T09:18:36;100167.34;;;0.74;100.00
10720;BME280;5411;58.386;15.560;2023-11-19T09:21:05;100160.84;;;0.78;100.00
10720;BME280;5411;58.386;15.560;2023-11-19T09:23:36;100149.84;;;0.83;100.00
10720;BME280;5411;58.386;15.560;2023-11-19T09:26:08;100150.94;;;0.90;100.00
10720;BME280;5411;58.386;15.560;2023-11-19T09:28:39;100144.25;;;0.95;100.00
10720;BME280;5411;58.386;15.560;2023-11-19T09:31:15;100145.63;;;0.99;100.00
10720;BME280;5411;58.386;15.560;2023-11-19T09:33:44;100154.06;;;1.03;100.00
10720;BME280;5411;58.386;15.560;2023-11-19T09:36:13;100146.38;;;1.10;100.00
10720;BME280;5411;58.386;15.560;2023-11-19T09:38:43;100143.31;;;1.14;100.00
10720;BME280;5411;58.386;15.560;2023-11-19T09:41:14;100139.28;;;1.20;100.00
10720;BME280;5411;58.386;15.560;2023-11-19T09:43:44;100147.53;;;1.25;100.00
10720;BME280;5411;58.386;15.560;2023-11-19T09:46:16;100143.66;;;1.29;100.00
10720;BME280;5411;58.386;15.560;2023-11-19T09:48:47;100141.56;;;1.32;100.00
10720;BME280;5411;58.386;15.560;2023-11-19T09:51:22;100143.19;;;1.33;100.00
10720;BME280;5411;58.386;15.560;2023-11-19T09:53:52;100138.75;;;1.34;100.00
10720;BME280;5411;58.386;15.560;2023-11-19T09:56:21;100138.91;;;1.32;100.00
10720;BME280;5411;58.386;15.560;2023-11-19T09:58:50;100142.38;;;1.33;100.00
10720;BME280;5411;58.386;15.560;2023-11-19T10:01:20;100141.56;;;1.32;100.00
10720;BME280;5411;58.386;15.560;2023-11-19T10:03:55;100138.09;;;1.32;100.00
10720;BME280;5411;58.386;15.560;2023-11-19T10:06:25;100137.75;;;1.35;100.00
10720;BME280;5411;58.386;15.560;2023-11-19T10:08:56;100134.28;;;1.34;100.00
10720;BME280;5411;58.386;15.560;2023-11-19T10:11:24;100126.72;;;1.31;100.00
10720;BME280;5411;58.386;15.560;2023-11-19T10:13:53;100118.81;;;1.31;100.00
10720;BME280;5411;58.386;15.560;2023-11-19T10:16:28;100126.56;;;1.33;100.00
10720;BME280;5411;58.386;15.560;2023-11-19T10:18:58;100117.66;;;1.34;100.00
10720;BME280;5411;58.386;15.560;2023-11-19T10:21:26;100114.19;;;1.33;100.00
10720;BME280;5411;58.386;15.560;2023-11-19T10:23:56;100115.84;;;1.34;100.00
10720;BME280;5411;58.386;15.560;2023-11-19T10:26:27;100107.50;;;1.39;100.00
10720;BME280;5411;58.386;15.560;2023-11-19T10:28:56;100110.53;;;1.44;100.00
10720;BME280;5411;58.386;15.560;2023-11-19T10:31:26;100110.75;;;1.51;100.00
10720;BME280;5411;58.386;15.560;2023-11-19T10:33:54;100108.50;;;1.56;100.00
10720;BME280;5411;58.386;15.560;2023-11-19T10:36:38;100099.31;;;1.60;100.00
10720;BME280;5411;58.386;15.560;2023-11-19T10:39:08;100087.59;;;1.62;100.00
10720;BME280;5411;58.386;15.560;2023-11-19T10:41:37;100083.16;;;1.63;100.00
10720;BME280;5411;58.386;15.560;2023-11-19T10:44:05;100075.50;;;1.69;100.00
10720;BME280;5411;58.386;15.560;2023-11-19T10:46:39;100065.63;;;1.71;100.00
10720;BME280;5411;58.386;15.560;2023-11-19T10:49:10;100070.25;;;1.77;100.00
10720;BME280;5411;58.386;15.560;2023-11-19T10:51:45;100075.91;;;1.83;100.00
10720;BME280;5411;58.386;15.560;2023-11-19T10:54:15;100067.53;;;1.87;100.00
10720;BME280;5411;58.386;15.560;2023-11-19T10:56:54;100071.38;;;1.93;100.00
10720;BME280;5411;58.386;15.560;2023-11-19T10:59:24;100060.38;;;1.97;100.00
10720;BME280;5411;58.386;15.560;2023-11-19T11:02:03;100064.03;;;2.04;100.00
10720;BME280;5411;58.386;15.560;2023-11-19T11:04:40;100060.09;;;2.08;100.00
10720;BME280;5411;58.386;15.560;2023-11-19T11:07:10;100066.53;;;2.14;100.00
10720;BME280;5411;58.386;15.560;2023-11-19T11:09:39;100066.25;;;2.17;100.00
10720;BME280;5411;58.386;15.560;2023-11-19T11:12:12;100062.47;;;2.20;100.00
10720;BME280;5411;58.386;15.560;2023-11-19T11:14:42;100052.91;;;2.19;100.00
10720;BME280;5411;58.386;15.560;2023-11-19T11:17:17;100049.13;;;2.21;100.00
10720;BME280;5411;58.386;15.560;2023-11-19T11:19:46;100057.03;;;2.21;100.00
10720;BME280;5411;58.386;15.560;2023-11-19T11:22:16;100052.59;;;2.22;100.00
10720;BME280;5411;58.386;15.560;2023-11-19T11:25:15;100046.19;;;2.24;100.00
10720;BME280;5411;58.386;15.560;2023-11-19T11:27:58;100044.38;;;2.25;100.00
10720;BME280;5411;58.386;15.560;2023-11-19T11:30:43;100048.66;;;2.26;100.00
10720;BME280;5411;58.386;15.560;2023-11-19T11:33:41;100037.28;;;2.25;100.00
10720;BME280;5411;58.386;15.560;2023-11-19T11:36:31;100036.44;;;2.25;100.00
10720;BME280;5411;58.386;15.560;2023-11-19T11:39:02;100030.66;;;2.21;100.00
10720;BME280;5411;58.386;15.560;2023-11-19T11:41:36;100027.84;;;2.23;100.00
10720;BME280;5411;58.386;15.560;2023-11-19T11:44:07;100022.44;;;2.24;100.00
10720;BME280;5411;58.386;15.560;2023-11-19T11:46:57;100019.25;;;2.21;100.00
10720;BME280;5411;58.386;15.560;2023-11-19T11:49:28;100019.41;;;2.19;100.00
10720;BME280;5411;58.386;15.560;2023-11-19T11:52:02;100010.00;;;2.17;100.00
10720;BME280;5411;58.386;15.560;2023-11-19T11:54:31;100015.13;;;2.18;100.00
10720;BME280;5411;58.386;15.560;2023-11-19T11:57:07;100005.25;;;2.20;100.00
10720;BME280;5411;58.386;15.560;2023-11-19T11:59:49;100017.59;;;2.20;100.00
10720;BME280;5411;58.386;15.560;2023-11-19T12:02:19;100016.47;;;2.22;100.00
10720;BME280;5411;58.386;15.560;2023-11-19T12:04:51;100011.88;;;2.24;100.00
10720;BME280;5411;58.386;15.560;2023-11-19T12:07:21;100006.75;;;2.23;100.00
10720;BME280;5411;58.386;15.560;2023-11-19T12:10:05;100018.13;;;2.23;100.00
10720;BME280;5411;58.386;15.560;2023-11-19T12:12:35;100009.06;;;2.26;100.00
10720;BME280;5411;58.386;15.560;2023-11-19T12:15:07;100004.44;;;2.28;100.00
10720;BME280;5411;58.386;15.560;2023-11-19T12:17:41;100017.47;;;2.29;100.00
10720;BME280;5411;58.386;15.560;2023-11-19T12:20:13;100016.66;;;2.29;100.00
10720;BME280;5411;58.386;15.560;2023-11-19T12:23:04;100005.13;;;2.30;100.00
10720;BME280;5411;58.386;15.560;2023-11-19T12:25:37;100015.81;;;2.28;100.00
10720;BME280;5411;58.386;15.560;2023-11-19T12:28:11;100002.78;;;2.27;100.00
10720;BME280;5411;58.386;15.560;2023-11-19T12:30:40;100006.94;;;2.29;100.00
10720;BME280;5411;58.386;15.560;2023-11-19T12:33:09;100012.19;;;2.29;100.00
10720;BME280;5411;58.386;15.560;2023-11-19T12:35:40;100008.06;;;2.27;100.00
10720;BME280;5411;58.386;15.560;2023-11-19T12:38:18;100001.81;;;2.28;100.00
10720;BME280;5411;58.386;15.560;2023-11-19T12:40:47;100004.28;;;2.29;100.00
10720;BME280;5411;58.386;15.560;2023-11-19T12:43:21;100001.66;;;2.29;100.00
10720;BME280;5411;58.386;15.560;2023-11-19T12:45:51;100000.50;;;2.32;100.00
10720;BME280;5411;58.386;15.560;2023-11-19T12:48:19;100000.50;;;2.32;100.00
10720;BME280;5411;58.386;15.560;2023-11-19T12:50:52;99995.59;;;2.37;100.00
10720;BME280;5411;58.386;15.560;2023-11-19T12:53:21;99987.69;;;2.37;100.00
10720;BME280;5411;58.386;15.560;2023-11-19T12:55:50;99992.13;;;2.36;100.00
10720;BME280;5411;58.386;15.560;2023-11-19T12:58:28;99977.94;;;2.37;100.00
10720;BME280;5411;58.386;15.560;2023-11-19T13:01:01;99974.97;;;2.40;100.00